KBPG

Big Spring Mc Mahon-Wrinkle Airport

Big Spring, Texas, USA
METAR KBPG 230835Z AUTO 14012KT 10SM CLR 22/16 A2999 RMK AO2 T02210160
Observed Flight Rules
May-23 @ 08:35 UTC (7 minutes ago) Visual Flight Rules
Wind Visibility Clouds
140° at 12 knots 10 miles
  • Clear skies
Temperatures Readings
Current 22°C / 72°F
Dewpoint 16°C / 61°F
Humidity 69%
Altimeter 29.99" Hg
Pressure 1016 hPa
Elevation 784
METAR KBPG 230835Z AUTO 14012KT 10SM CLR 22/16 A2999 RMK AO2 T02210160
Observed Flight Rules
May-23 @ 08:35 UTC
(7 minutes ago)
VFR
Wind Visibility
140° at 12 knots 10 miles
Clouds
  • Clear skies
Temperature Dewpoint
22°C / 72°F 16°C / 61°F
Humidity Altimeter Pressure
69% 29.99" Hg 1016 hPa